Time;durP1;ratioP1;P1;durP2;ratioP2;P2;SDS_P1;SDS_P2;PMS_P1;PMS_P2;Temp;Humidity;BMP_temperature;BMP_pressure;BME280_temperature;BME280_humidity;BME280_pressure;Samples;Min_cycle;Max_cycle;Signal;HPM_P1;HPM_P2
2023/01/02 00:01:25;;;;;;;13.20;5.07;;;8.20;99.90;;;;;;5062569;28;20476;-63
2023/01/02 00:03:52;;;;;;;11.60;5.53;;;8.20;99.90;;;;;;5057343;28;20074;-66
2023/01/02 00:06:18;;;;;;;15.30;5.60;;;8.10;99.90;;;;;;5068304;28;20021;-64
2023/01/02 00:08:43;;;;;;;10.75;5.47;;;8.10;99.90;;;;;;5067209;28;20020;-65
2023/01/02 00:11:09;;;;;;;9.52;4.47;;;8.10;99.90;;;;;;5069854;28;20037;-69
2023/01/02 00:13:35;;;;;;;11.02;4.63;;;8.10;99.90;;;;;;5068900;28;20099;-65
2023/01/02 00:16:00;;;;;;;8.82;4.50;;;8.10;99.90;;;;;;5069561;28;20111;-65
2023/01/02 00:18:26;;;;;;;10.07;2.97;;;8.10;99.90;;;;;;5067642;28;20028;-64
2023/01/02 00:20:52;;;;;;;8.68;2.63;;;8.20;99.90;;;;;;5059839;28;20492;-64
2023/01/02 00:23:17;;;;;;;5.85;1.92;;;8.20;99.90;;;;;;5067683;28;20029;-64
2023/01/02 00:25:43;;;;;;;4.38;2.20;;;8.40;99.90;;;;;;5064948;28;20028;-65
2023/01/02 00:28:09;;;;;;;6.82;3.03;;;8.50;99.90;;;;;;5060027;28;20401;-67
2023/01/02 00:30:37;;;;;;;5.28;2.20;;;8.60;99.90;;;;;;5060466;28;20139;-65
2023/01/02 00:33:03;;;;;;;9.50;3.35;;;8.70;99.90;;;;;;5067128;28;20051;-65
2023/01/02 00:35:29;;;;;;;11.48;5.10;;;8.80;99.90;;;;;;5072924;28;20465;-66
2023/01/02 00:37:55;;;;;;;10.93;4.47;;;8.70;99.90;;;;;;5068977;28;20117;-64
2023/01/02 00:40:20;;;;;;;12.05;5.05;;;8.50;99.90;;;;;;5066916;28;20186;-64
2023/01/02 00:42:46;;;;;;;13.40;6.75;;;8.40;99.90;;;;;;5068324;28;20028;-65
2023/01/02 00:45:11;;;;;;;15.07;6.95;;;8.30;99.90;;;;;;5056823;28;20035;-68
2023/01/02 00:47:37;;;;;;;16.23;8.63;;;8.20;99.90;;;;;;5068762;28;20028;-63
2023/01/02 00:50:03;;;;;;;13.50;7.20;;;8.10;99.90;;;;;;5067656;28;20762;-66
2023/01/02 00:52:29;;;;;;;14.35;6.93;;;8.00;99.90;;;;;;5067118;28;20114;-65
2023/01/02 00:54:55;;;;;;;15.48;7.63;;;7.90;99.90;;;;;;5066531;28;20470;-65
2023/01/02 00:57:20;;;;;;;14.43;5.85;;;7.90;99.90;;;;;;5064724;28;20030;-64
2023/01/02 00:59:46;;;;;;;15.13;5.97;;;7.90;99.90;;;;;;5067047;28;20111;-63
2023/01/02 01:02:11;;;;;;;10.82;5.40;;;7.80;99.90;;;;;;5064035;28;20025;-66
2023/01/02 01:04:37;;;;;;;17.15;6.07;;;7.90;99.90;;;;;;5063867;28;20817;-65
2023/01/02 01:07:03;;;;;;;12.55;6.03;;;7.90;99.90;;;;;;5067527;28;20579;-65
2023/01/02 01:09:29;;;;;;;12.18;6.15;;;7.90;99.90;;;;;;5065421;28;20040;-65
2023/01/02 01:11:54;;;;;;;11.77;5.95;;;7.90;99.90;;;;;;5067987;28;20646;-64
2023/01/02 01:14:20;;;;;;;11.00;5.45;;;7.90;99.90;;;;;;5065449;28;20036;-64
2023/01/02 01:16:46;;;;;;;11.30;5.10;;;7.90;99.90;;;;;;5063553;28;20056;-64
2023/01/02 01:19:12;;;;;;;13.98;5.15;;;7.90;99.90;;;;;;5059972;28;20102;-68
2023/01/02 01:21:37;;;;;;;11.30;5.22;;;7.90;99.90;;;;;;5065823;28;20378;-64
2023/01/02 01:24:03;;;;;;;11.43;5.00;;;7.90;99.90;;;;;;5067071;28;20631;-65
2023/01/02 01:26:29;;;;;;;10.02;4.70;;;7.90;99.90;;;;;;5061964;28;20051;-65
2023/01/02 01:28:55;;;;;;;11.43;4.90;;;7.80;99.90;;;;;;5067289;28;20103;-65
2023/01/02 01:31:22;;;;;;;13.50;5.57;;;7.70;99.90;;;;;;5063822;28;20123;-65
2023/01/02 01:33:48;;;;;;;10.02;4.57;;;7.70;99.90;;;;;;5065619;28;20498;-64
2023/01/02 01:36:22;;;;;;;9.48;4.15;;;7.80;99.90;;;;;;5066614;28;20033;-67
2023/01/02 01:38:49;;;;;;;7.90;3.80;;;7.70;99.90;;;;;;5056528;28;20036;-65
2023/01/02 01:41:17;;;;;;;8.75;4.30;;;7.70;99.90;;;;;;5054873;28;20492;-68
2023/01/02 01:43:50;;;;;;;7.45;3.63;;;7.60;99.90;;;;;;5064132;28;20036;-65
2023/01/02 01:46:37;;;;;;;7.45;3.60;;;7.70;99.90;;;;;;5063659;28;20045;-70
2023/01/02 01:49:02;;;;;;;7.45;3.60;;;7.70;99.90;;;;;;5061909;28;20473;-63
2023/01/02 01:51:32;;;;;;;8.23;3.50;;;7.70;99.90;;;;;;5061753;28;20091;-65
2023/01/02 01:54:09;;;;;;;8.88;3.88;;;7.80;99.90;;;;;;5068021;28;20024;-64
2023/01/02 01:56:40;;;;;;;8.23;3.75;;;7.80;99.90;;;;;;5071543;28;20020;-65
2023/01/02 01:59:08;;;;;;;11.40;4.88;;;7.70;99.90;;;;;;5062145;28;20071;-64
2023/01/02 02:01:34;;;;;;;19.15;5.38;;;7.70;99.90;;;;;;5066199;28;20634;-63
2023/01/02 02:04:00;;;;;;;12.60;4.93;;;7.70;99.90;;;;;;5059817;28;20037;-64
2023/01/02 02:06:26;;;;;;;11.75;5.13;;;7.70;99.90;;;;;;5066087;28;20039;-65
2023/01/02 02:09:05;;;;;;;16.75;6.10;;;7.60;99.90;;;;;;5064225;28;20036;-65
2023/01/02 02:11:31;;;;;;;13.45;5.93;;;7.60;99.90;;;;;;5057552;28;20110;-63
2023/01/02 02:13:58;;;;;;;18.88;6.07;;;7.50;99.90;;;;;;5067597;28;20079;-64
2023/01/02 02:16:50;;;;;;;12.50;5.05;;;7.60;99.90;;;;;;5066129;28;20025;-63
2023/01/02 02:19:57;;;;;;;13.68;5.20;;;7.60;99.90;;;;;;5066762;28;20040;-69
2023/01/02 02:22:38;;;;;;;12.85;4.78;;;7.60;99.90;;;;;;5066712;28;20055;-65
2023/01/02 02:25:21;;;;;;;10.63;5.00;;;7.60;99.90;;;;;;5067469;28;20163;-65
2023/01/02 02:28:03;;;;;;;14.93;5.20;;;7.60;99.90;;;;;;5066334;28;20493;-66
2023/01/02 02:30:38;;;;;;;11.95;5.15;;;7.60;99.90;;;;;;5065872;28;20041;-63
2023/01/02 02:33:15;;;;;;;16.30;5.22;;;7.60;99.90;;;;;;5063664;28;20470;-65
2023/01/02 02:36:09;;;;;;;13.38;5.47;;;7.50;99.90;;;;;;5069177;28;20060;-64
2023/01/02 02:38:53;;;;;;;10.13;5.10;;;7.50;99.90;;;;;;5065545;28;20477;-64
2023/01/02 02:41:33;;;;;;;15.68;5.45;;;7.40;99.90;;;;;;5058815;28;20422;-68
2023/01/02 02:44:05;;;;;;;9.38;4.50;;;7.40;99.90;;;;;;5068737;28;20028;-64
2023/01/02 02:46:49;;;;;;;12.43;5.30;;;7.30;99.90;;;;;;5083507;28;20384;-63
2023/01/02 02:49:53;;;;;;;9.05;4.00;;;7.30;99.90;;;;;;5058837;28;20039;-63
2023/01/02 02:52:24;;;;;;;14.70;4.00;;;7.30;99.90;;;;;;5063280;28;20055;-66
2023/01/02 02:55:03;;;;;;;10.98;4.38;;;7.20;99.90;;;;;;5067048;28;20033;-64
2023/01/02 02:57:31;;;;;;;9.43;4.25;;;7.20;99.90;;;;;;5068183;28;20029;-65
2023/01/02 02:59:57;;;;;;;10.07;4.20;;;7.20;99.90;;;;;;5068471;28;20509;-65
2023/01/02 03:02:22;;;;;;;7.63;3.80;;;7.10;99.90;;;;;;5071627;28;20063;-64
2023/01/02 03:04:55;;;;;;;14.05;4.70;;;7.10;99.90;;;;;;5053814;28;20044;-65
2023/01/02 03:07:25;;;;;;;8.40;3.67;;;7.10;99.90;;;;;;5059215;28;20119;-69
2023/01/02 03:10:19;;;;;;;6.45;2.95;;;7.20;99.90;;;;;;5070226;28;20056;-63
2023/01/02 03:13:26;;;;;;;10.02;3.83;;;7.20;99.90;;;;;;5069857;28;20074;-62
2023/01/02 03:16:10;;;;;;;9.07;4.07;;;7.30;99.90;;;;;;5072351;28;20077;-65
2023/01/02 03:18:52;;;;;;;8.07;3.75;;;7.20;99.90;;;;;;5066799;28;20099;-64
2023/01/02 03:21:41;;;;;;;9.65;3.85;;;7.20;99.90;;;;;;5075155;28;20040;-66
2023/01/02 03:24:10;;;;;;;8.93;3.90;;;7.20;99.90;;;;;;5069212;28;20059;-63
2023/01/02 03:26:40;;;;;;;7.75;3.70;;;7.10;99.90;;;;;;5065216;28;20056;-63
2023/01/02 03:29:12;;;;;;;6.50;3.65;;;7.10;99.90;;;;;;5069389;28;20042;-64
2023/01/02 03:31:41;;;;;;;9.40;3.95;;;7.10;99.90;;;;;;5062356;28;20039;-65
2023/01/02 03:34:12;;;;;;;11.32;3.92;;;7.10;99.90;;;;;;5070871;28;20068;-64
2023/01/02 03:36:41;;;;;;;13.32;4.47;;;6.90;99.90;;;;;;5063178;28;20032;-64
2023/01/02 03:39:15;;;;;;;9.40;4.95;;;6.90;99.90;;;;;;5068277;28;20028;-63
2023/01/02 03:41:50;;;;;;;13.23;4.95;;;6.90;99.90;;;;;;5074282;28;20033;-65
2023/01/02 03:44:17;;;;;;;10.80;5.43;;;6.90;99.90;;;;;;5069226;28;20448;-65
2023/01/02 03:46:52;;;;;;;8.27;3.75;;;6.80;99.90;;;;;;5061987;28;20032;-64
2023/01/02 03:49:27;;;;;;;6.15;2.72;;;6.80;99.90;;;;;;5067520;28;20040;-64
2023/01/02 03:51:53;;;;;;;5.50;2.50;;;6.80;99.90;;;;;;5068116;28;20143;-65
2023/01/02 03:54:19;;;;;;;8.40;3.00;;;6.80;99.90;;;;;;5066084;28;20095;-65
2023/01/02 03:57:24;;;;;;;12.98;3.83;;;6.80;99.90;;;;;;5067434;28;20052;-64
2023/01/02 04:00:20;;;;;;;7.68;3.78;;;6.80;99.90;;;;;;5068616;28;20493;-65
2023/01/02 04:03:25;;;;;;;7.72;3.25;;;6.80;99.90;;;;;;5052895;28;20052;-64
2023/01/02 04:06:09;;;;;;;11.05;3.60;;;6.80;99.90;;;;;;4990266;28;20080;-64
2023/01/02 04:08:49;;;;;;;7.57;3.55;;;6.90;99.90;;;;;;5057135;28;20404;-66
2023/01/02 04:11:18;;;;;;;7.70;3.40;;;6.90;99.90;;;;;;5060752;28;20085;-65
2023/01/02 04:13:57;;;;;;;10.38;3.65;;;6.90;99.90;;;;;;5059831;28;20040;-66
2023/01/02 04:16:28;;;;;;;9.35;4.57;;;6.80;99.90;;;;;;5064241;28;20086;-66
2023/01/02 04:18:57;;;;;;;8.63;3.97;;;6.70;99.90;;;;;;5069964;28;20056;-65
2023/01/02 04:21:27;;;;;;;9.48;4.00;;;6.70;99.90;;;;;;5064964;28;20033;-67
2023/01/02 04:24:16;;;;;;;12.07;5.18;;;6.70;99.90;;;;;;5069508;28;20032;-63
2023/01/02 04:26:48;;;;;;;13.10;5.80;;;6.70;99.90;;;;;;5057257;28;20040;-66
2023/01/02 04:29:13;;;;;;;13.13;6.28;;;6.50;99.90;;;;;;5061991;28;20075;-63
2023/01/02 04:31:55;;;;;;;15.57;6.55;;;6.40;99.90;;;;;;5060375;28;20080;-65
2023/01/02 04:34:22;;;;;;;16.65;7.03;;;6.40;99.90;;;;;;5056397;28;20048;-63
2023/01/02 04:36:48;;;;;;;16.50;6.93;;;6.30;99.90;;;;;;5059466;28;20536;-63
2023/01/02 04:39:14;;;;;;;17.10;6.50;;;6.30;99.90;;;;;;5064081;28;20033;-63
2023/01/02 04:41:40;;;;;;;19.00;6.82;;;6.30;99.90;;;;;;5066604;28;20456;-64
2023/01/02 04:44:05;;;;;;;15.02;6.90;;;6.30;99.90;;;;;;5067735;28;20024;-65
2023/01/02 04:46:31;;;;;;;17.90;6.80;;;6.30;99.90;;;;;;5060101;28;20032;-63
2023/01/02 04:48:57;;;;;;;16.58;7.07;;;6.30;99.90;;;;;;5067731;28;20021;-63
2023/01/02 04:51:23;;;;;;;18.27;6.85;;;6.30;99.90;;;;;;5060368;28;20036;-64
2023/01/02 04:53:49;;;;;;;19.58;6.85;;;6.30;99.90;;;;;;5054478;28;20037;-66
2023/01/02 04:56:15;;;;;;;13.38;6.13;;;6.20;99.90;;;;;;5066595;28;20028;-65
2023/01/02 04:58:42;;;;;;;16.63;6.32;;;6.20;99.90;;;;;;5065207;28;20029;-64
2023/01/02 05:01:09;;;;;;;11.52;5.93;;;6.20;99.90;;;;;;5056928;28;20063;-63
2023/01/02 05:03:39;;;;;;;12.85;5.35;;;6.20;99.90;;;;;;5073248;28;20433;-63
2023/01/02 05:06:05;;;;;;;11.55;5.95;;;6.10;99.90;;;;;;5068528;28;20404;-62
2023/01/02 05:08:31;;;;;;;12.63;5.45;;;6.10;99.90;;;;;;5063268;28;20029;-64
2023/01/02 05:10:56;;;;;;;14.82;6.10;;;6.10;99.90;;;;;;5069848;28;20047;-65
2023/01/02 05:13:22;;;;;;;15.63;5.82;;;6.10;99.90;;;;;;5066998;28;20476;-65
2023/01/02 05:15:55;;;;;;;13.45;6.07;;;6.20;99.90;;;;;;5067582;28;20222;-65
2023/01/02 05:18:20;;;;;;;12.55;5.30;;;6.20;99.90;;;;;;5067660;28;20028;-63
2023/01/02 05:20:46;;;;;;;10.43;5.10;;;6.20;99.90;;;;;;5067545;28;20040;-65
2023/01/02 05:26:10;;;;;;;14.38;5.18;;;6.20;99.90;;;;;;5065090;28;20044;-67
2023/01/02 05:28:35;;;;;;;10.55;5.20;;;6.20;99.90;;;;;;5060182;28;20759;-65
2023/01/02 05:31:01;;;;;;;12.18;5.10;;;6.20;99.90;;;;;;5067312;28;20024;-69
2023/01/02 05:33:26;;;;;;;13.88;5.38;;;6.20;99.90;;;;;;5071788;28;20112;-65
2023/01/02 05:35:52;;;;;;;10.07;4.60;;;6.20;99.90;;;;;;5066029;28;20031;-64
2023/01/02 05:38:18;;;;;;;12.70;5.38;;;6.20;99.90;;;;;;5067577;28;20033;-66
2023/01/02 05:40:43;;;;;;;12.15;5.20;;;6.30;99.90;;;;;;5067451;28;20037;-67
2023/01/02 05:43:09;;;;;;;11.85;4.80;;;6.30;99.90;;;;;;5066865;28;20039;-65
2023/01/02 05:45:34;;;;;;;10.60;5.00;;;6.30;99.90;;;;;;5066289;28;20024;-66
2023/01/02 05:48:00;;;;;;;11.05;4.80;;;6.30;99.90;;;;;;5066832;28;20060;-64
2023/01/02 05:50:26;;;;;;;11.52;5.10;;;6.30;99.90;;;;;;5066161;28;20443;-67
2023/01/02 05:52:51;;;;;;;12.75;5.20;;;6.30;99.90;;;;;;5065655;28;20033;-64
2023/01/02 05:55:17;;;;;;;13.48;4.55;;;6.20;99.90;;;;;;5074230;28;20473;-65
2023/01/02 05:57:42;;;;;;;13.25;5.13;;;6.20;99.90;;;;;;5063005;28;20035;-64
2023/01/02 06:00:09;;;;;;;11.98;5.15;;;6.20;99.90;;;;;;5066677;28;20044;-67
2023/01/02 06:02:34;;;;;;;8.75;4.50;;;6.20;99.90;;;;;;5059179;28;20077;-65
2023/01/02 06:05:00;;;;;;;11.27;4.63;;;6.20;99.90;;;;;;5066945;28;20103;-65
2023/01/02 06:07:25;;;;;;;13.45;4.95;;;6.10;99.90;;;;;;5067844;28;20032;-65
2023/01/02 06:09:51;;;;;;;11.00;4.60;;;6.20;99.90;;;;;;5067875;28;20045;-65
2023/01/02 06:12:16;;;;;;;12.43;4.90;;;6.20;99.90;;;;;;5063927;28;20035;-63
2023/01/02 06:14:42;;;;;;;11.80;3.70;;;6.20;99.90;;;;;;5067114;28;20079;-66
2023/01/02 06:17:40;;;;;;;;;;;;;;;;;;;;;
2023/01/02 06:20:01;;;;;;;12.18;5.47;;;6.30;99.90;;;;;;5062620;28;20044;-66
2023/01/02 06:22:27;;;;;;;8.77;4.10;;;6.30;99.90;;;;;;5067788;28;20028;-64
2023/01/02 06:24:52;;;;;;;10.77;4.30;;;6.30;99.90;;;;;;5066863;28;20032;-65
2023/01/02 06:27:18;;;;;;;9.07;5.07;;;6.30;99.90;;;;;;5065164;28;20098;-65
2023/01/02 06:29:44;;;;;;;9.77;4.57;;;6.30;99.90;;;;;;5065804;28;20379;-64
2023/01/02 06:32:09;;;;;;;12.88;4.78;;;6.30;99.90;;;;;;5068476;28;20029;-66
2023/01/02 06:34:35;;;;;;;12.35;5.53;;;6.30;99.90;;;;;;5074179;28;20028;-66
2023/01/02 06:37:01;;;;;;;11.98;4.53;;;6.40;99.90;;;;;;5069295;28;20052;-66
2023/01/02 06:39:26;;;;;;;12.40;4.55;;;6.30;99.90;;;;;;5071437;28;20032;-65
2023/01/02 06:41:52;;;;;;;11.70;4.38;;;6.30;99.90;;;;;;5069410;28;20028;-66
2023/01/02 06:44:17;;;;;;;12.05;4.43;;;6.30;99.90;;;;;;5071347;28;20440;-65
2023/01/02 06:46:43;;;;;;;18.73;5.03;;;6.20;99.90;;;;;;5068287;28;20029;-66
2023/01/02 06:49:09;;;;;;;13.80;5.40;;;6.20;99.90;;;;;;5063113;28;20024;-66
2023/01/02 06:51:34;;;;;;;10.70;5.60;;;6.20;99.90;;;;;;5069587;28;20485;-66
2023/01/02 06:54:00;;;;;;;10.68;5.00;;;6.10;99.90;;;;;;5070615;28;20029;-67
2023/01/02 06:56:25;;;;;;;9.52;4.90;;;6.10;99.90;;;;;;5069530;28;20055;-65
2023/01/02 06:58:51;;;;;;;11.63;4.50;;;6.10;99.90;;;;;;5067011;28;20089;-66
2023/01/02 07:01:19;;;;;;;9.43;4.63;;;6.00;99.90;;;;;;5070439;28;20036;-65
2023/01/02 07:03:45;;;;;;;10.90;4.82;;;5.90;99.90;;;;;;5072455;28;20028;-65
2023/01/02 07:06:13;;;;;;;12.52;5.68;;;5.90;99.90;;;;;;5069451;28;20036;-66
2023/01/02 07:08:40;;;;;;;12.80;4.93;;;5.80;99.90;;;;;;5074581;28;20036;-64
2023/01/02 07:11:21;;;;;;;10.95;5.32;;;5.80;99.90;;;;;;5070539;28;20091;-64
2023/01/02 07:13:48;;;;;;;13.82;5.20;;;5.90;99.90;;;;;;5065881;28;20032;-65
2023/01/02 07:16:17;;;;;;;12.52;5.80;;;5.90;99.90;;;;;;5069312;28;20029;-65
2023/01/02 07:18:43;;;;;;;9.10;4.78;;;6.00;99.90;;;;;;5067233;28;20098;-65
2023/01/02 07:21:10;;;;;;;11.50;5.70;;;6.00;99.90;;;;;;5056675;28;20028;-65
2023/01/02 07:23:36;;;;;;;17.05;6.88;;;6.10;99.90;;;;;;5064394;28;20393;-65
2023/01/02 07:26:04;;;;;;;9.23;4.60;;;6.10;99.90;;;;;;5067577;28;20045;-65
2023/01/02 07:28:29;;;;;;;14.40;5.07;;;6.30;99.90;;;;;;5064864;28;20040;-65
2023/01/02 07:30:59;;;;;;;11.25;5.07;;;6.40;99.90;;;;;;5059459;28;20687;-65
2023/01/02 07:33:27;;;;;;;9.57;4.43;;;6.30;99.90;;;;;;5060695;28;20036;-64
2023/01/02 07:36:05;;;;;;;13.07;4.78;;;6.30;99.90;;;;;;5063471;28;20028;-66
2023/01/02 07:38:33;;;;;;;11.93;4.80;;;6.20;99.90;;;;;;5050085;28;20094;-66
2023/01/02 07:40:59;;;;;;;12.30;5.43;;;6.20;99.90;;;;;;5062810;28;20037;-65
2023/01/02 07:43:25;;;;;;;10.30;4.70;;;6.20;99.90;;;;;;5058851;28;20033;-66
2023/01/02 07:45:50;;;;;;;9.55;4.32;;;6.20;99.90;;;;;;5064375;28;20036;-66
2023/01/02 07:48:17;;;;;;;10.73;4.25;;;6.20;99.90;;;;;;5053954;28;20036;-65
2023/01/02 07:50:42;;;;;;;10.48;5.07;;;6.10;99.90;;;;;;5068433;28;20401;-63
2023/01/02 07:53:08;;;;;;;12.10;5.10;;;6.00;99.90;;;;;;5062415;28;20043;-65
2023/01/02 07:55:34;;;;;;;13.07;4.95;;;6.10;99.90;;;;;;5059376;28;20033;-67
2023/01/02 07:57:59;;;;;;;13.07;6.50;;;6.00;99.90;;;;;;5067046;28;20058;-64
2023/01/02 08:00:25;;;;;;;17.75;6.88;;;6.00;99.90;;;;;;5066916;28;20037;-64
2023/01/02 08:02:53;;;;;;;21.25;8.60;;;6.00;99.90;;;;;;5054060;28;20036;-65
2023/01/02 08:05:20;;;;;;;23.00;7.38;;;6.00;99.90;;;;;;5059020;28;20527;-65
2023/01/02 08:07:45;;;;;;;15.63;7.65;;;5.90;99.90;;;;;;5055977;28;20079;-65
2023/01/02 08:10:11;;;;;;;16.83;7.38;;;5.80;99.90;;;;;;5060434;28;20044;-65
2023/01/02 08:12:37;;;;;;;13.80;5.82;;;5.80;99.90;;;;;;5051677;28;20103;-66
2023/01/02 08:15:03;;;;;;;12.27;6.38;;;5.80;99.90;;;;;;5069422;28;20123;-63
2023/01/02 08:17:30;;;;;;;10.50;5.22;;;5.90;99.90;;;;;;5070177;28;20024;-64
2023/01/02 08:19:56;;;;;;;13.13;5.55;;;5.80;99.90;;;;;;5067126;28;20056;-65
2023/01/02 08:22:22;;;;;;;10.82;5.18;;;5.70;99.90;;;;;;5057176;28;20063;-64
2023/01/02 08:24:48;;;;;;;15.55;5.68;;;5.80;99.90;;;;;;5067580;28;20137;-64
2023/01/02 08:27:13;;;;;;;15.70;5.90;;;5.90;99.90;;;;;;5056884;28;20116;-64
2023/01/02 08:29:39;;;;;;;13.10;5.28;;;5.90;99.90;;;;;;5060074;28;20037;-67
2023/01/02 08:32:05;;;;;;;13.73;5.70;;;6.00;99.90;;;;;;5067541;28;20025;-65
2023/01/02 08:34:32;;;;;;;14.93;5.72;;;6.00;99.90;;;;;;5068617;28;20043;-64
2023/01/02 08:36:58;;;;;;;10.35;5.28;;;6.10;99.90;;;;;;5062220;28;20514;-65
2023/01/02 08:39:23;;;;;;;11.30;5.78;;;6.20;99.90;;;;;;5049862;28;20029;-65
2023/01/02 08:41:49;;;;;;;14.00;5.60;;;6.20;99.90;;;;;;5066913;28;20190;-63
2023/01/02 08:44:15;;;;;;;10.93;5.45;;;6.20;99.90;;;;;;5065880;28;20535;-65
2023/01/02 08:46:40;;;;;;;13.75;6.15;;;6.20;99.90;;;;;;5059851;28;20028;-66
2023/01/02 08:49:06;;;;;;;12.18;5.88;;;6.20;99.90;;;;;;5054410;28;20028;-63
2023/01/02 08:51:32;;;;;;;14.05;6.00;;;6.20;99.90;;;;;;5057343;28;20036;-64
2023/01/02 08:53:57;;;;;;;16.08;6.15;;;6.20;99.90;;;;;;5065003;28;20025;-62
2023/01/02 08:56:29;;;;;;;14.98;5.85;;;6.30;99.90;;;;;;5068690;28;20032;-66
2023/01/02 08:58:59;;;;;;;13.77;6.03;;;6.30;99.90;;;;;;5059462;28;20059;-64
2023/01/02 09:01:27;;;;;;;17.30;6.88;;;6.30;99.90;;;;;;5063812;28;20032;-66
2023/01/02 09:03:53;;;;;;;18.55;7.10;;;6.30;99.90;;;;;;5060428;28;20428;-64
2023/01/02 09:06:23;;;;;;;18.52;7.90;;;6.40;99.90;;;;;;5066027;28;20028;-64
2023/01/02 09:08:51;;;;;;;19.83;9.18;;;6.50;99.90;;;;;;5067394;28;20039;-64
2023/01/02 09:11:24;;;;;;;24.92;9.82;;;6.60;99.90;;;;;;5061953;28;20053;-62
2023/01/02 09:13:50;;;;;;;24.42;10.38;;;6.70;99.90;;;;;;5074987;28;20039;-64
2023/01/02 09:16:16;;;;;;;24.67;9.80;;;6.80;99.90;;;;;;5067844;28;20515;-62
2023/01/02 09:18:42;;;;;;;23.23;10.32;;;7.00;99.90;;;;;;5062711;28;20029;-65
2023/01/02 09:21:08;;;;;;;27.83;11.15;;;7.10;99.90;;;;;;5066421;28;20028;-65
2023/01/02 09:23:34;;;;;;;16.95;7.70;;;7.20;99.90;;;;;;5066815;28;20418;-64
2023/01/02 09:26:01;;;;;;;18.90;8.32;;;7.30;99.90;;;;;;5064987;28;20097;-64
2023/01/02 09:28:27;;;;;;;17.13;7.82;;;7.30;99.90;;;;;;5068301;28;20039;-64
2023/01/02 09:30:54;;;;;;;12.60;4.55;;;7.50;99.90;;;;;;5065633;28;20071;-63
2023/01/02 09:33:20;;;;;;;7.53;2.55;;;7.90;99.90;;;;;;5067615;28;20113;-64
2023/01/02 09:35:46;;;;;;;5.35;1.90;;;8.30;99.90;;;;;;5066066;28;20028;-62
2023/01/02 09:38:11;;;;;;;6.75;3.30;;;8.70;99.90;;;;;;5067766;28;20052;-61
2023/01/02 09:40:48;;;;;;;13.48;6.72;;;8.90;99.90;;;;;;5066744;28;20065;-63
2023/01/02 09:43:16;;;;;;;15.85;7.80;;;9.00;99.90;;;;;;5074675;28;20489;-62
2023/01/02 09:45:43;;;;;;;15.68;7.25;;;8.90;99.90;;;;;;5063569;28;20028;-64
2023/01/02 09:48:16;;;;;;;15.18;5.90;;;8.70;99.90;;;;;;5068117;28;20029;-64
2023/01/02 09:50:44;;;;;;;14.85;6.55;;;8.60;99.90;;;;;;5063382;28;20390;-63
2023/01/02 09:53:12;;;;;;;13.80;6.80;;;8.50;99.90;;;;;;5073366;28;20028;-62
2023/01/02 09:55:44;;;;;;;13.55;5.85;;;8.40;99.90;;;;;;5067871;28;20033;-63
2023/01/02 09:58:15;;;;;;;10.45;5.38;;;8.30;99.90;;;;;;5066870;28;20461;-63
2023/01/02 10:00:45;;;;;;;11.52;5.55;;;8.20;99.90;;;;;;5073715;28;20043;-64
2023/01/02 10:03:37;;;;;;;11.82;5.07;;;8.20;99.90;;;;;;5063897;28;20055;-64
2023/01/02 10:06:20;;;;;;;17.45;6.32;;;8.20;99.90;;;;;;5070636;28;20029;-63
2023/01/02 10:09:25;;;;;;;10.85;5.45;;;8.30;99.90;;;;;;5063851;28;20036;-64
2023/01/02 10:11:55;;;;;;;9.35;4.55;;;8.30;99.90;;;;;;5060550;28;20390;-64
2023/01/02 10:14:24;;;;;;;12.40;5.80;;;8.30;99.90;;;;;;5068148;28;20385;-65
2023/01/02 10:16:54;;;;;;;65.35;23.02;;;8.40;99.90;;;;;;5064436;28;20421;-63
2023/01/02 10:19:45;;;;;;;63.28;21.30;;;8.60;99.90;;;;;;5060280;28;20024;-62
2023/01/02 10:22:16;;;;;;;37.28;15.23;;;8.70;99.90;;;;;;5066720;28;20492;-63
2023/01/02 10:24:55;;;;;;;33.80;11.70;;;8.90;99.90;;;;;;5057148;28;20450;-65
2023/01/02 10:27:28;;;;;;;12.90;5.80;;;9.10;99.90;;;;;;5060229;28;20080;-63
2023/01/02 10:30:14;;;;;;;12.13;5.13;;;9.10;99.90;;;;;;5065332;28;20040;-63
2023/01/02 10:32:46;;;;;;;13.30;6.53;;;9.10;99.90;;;;;;5063545;28;20029;-64
2023/01/02 10:35:30;;;;;;;16.73;6.30;;;9.20;99.90;;;;;;5067388;28;20381;-64
2023/01/02 10:37:56;;;;;;;15.18;7.30;;;9.10;99.90;;;;;;5057623;28;20037;-64
2023/01/02 10:40:23;;;;;;;13.70;6.50;;;9.00;99.90;;;;;;5067417;28;20044;-63
2023/01/02 10:42:53;;;;;;;18.52;8.80;;;8.90;99.90;;;;;;5066065;28;20043;-66
2023/01/02 10:45:19;;;;;;;22.73;10.65;;;9.00;99.90;;;;;;5059479;28;20469;-63
2023/01/02 10:47:45;;;;;;;24.30;10.40;;;9.10;99.90;;;;;;5065913;28;20038;-67
2023/01/02 10:50:24;;;;;;;22.70;10.50;;;9.20;99.90;;;;;;5065783;28;20060;-66
2023/01/02 10:52:52;;;;;;;20.77;11.15;;;9.40;99.90;;;;;;5069268;28;20032;-64
2023/01/02 10:55:32;;;;;;;15.57;7.25;;;9.60;99.90;;;;;;5066419;28;20480;-65
2023/01/02 10:58:19;;;;;;;13.10;7.15;;;9.70;99.90;;;;;;5072286;28;20040;-65
2023/01/02 11:00:45;;;;;;;13.13;6.68;;;9.80;99.90;;;;;;5057336;28;20041;-65
2023/01/02 11:03:24;;;;;;;16.55;7.82;;;9.90;99.90;;;;;;5054416;28;20029;-62
2023/01/02 11:05:53;;;;;;;18.92;8.82;;;10.00;99.90;;;;;;5054647;28;20067;-63
2023/01/02 11:08:22;;;;;;;15.73;7.68;;;10.20;99.90;;;;;;5059874;28;20039;-63
2023/01/02 11:10:49;;;;;;;16.83;9.20;;;10.40;99.90;;;;;;5053959;28;20045;-65
2023/01/02 11:13:17;;;;;;;13.10;6.78;;;10.50;99.90;;;;;;5058449;28;20397;-64
2023/01/02 11:15:51;;;;;;;14.98;6.20;;;10.60;99.90;;;;;;5062342;28;20032;-64
2023/01/02 11:18:36;;;;;;;13.77;4.38;;;10.90;99.90;;;;;;5059798;28;20033;-63
2023/01/02 11:21:04;;;;;;;12.27;4.47;;;11.20;99.90;;;;;;5063564;28;20734;-65
2023/01/02 11:23:39;;;;;;;10.20;3.85;;;11.50;99.90;;;;;;5054985;28;20090;-63
2023/01/02 11:26:19;;;;;;;8.02;3.50;;;11.80;99.90;;;;;;5061991;28;20583;-64
2023/01/02 11:28:46;;;;;;;9.43;3.20;;;12.10;99.90;;;;;;5056057;28;20033;-65
2023/01/02 11:31:15;;;;;;;10.38;4.00;;;12.40;99.90;;;;;;5065250;28;20150;-63
2023/01/02 11:33:42;;;;;;;10.43;3.70;;;12.70;99.90;;;;;;5063577;28;20035;-62
2023/01/02 11:36:10;;;;;;;11.65;2.40;;;12.80;99.90;;;;;;5060841;28;20033;-63
2023/01/02 11:38:58;;;;;;;13.43;2.42;;;12.90;99.90;;;;;;5061045;28;20028;-63
2023/01/02 11:45:11;;;;;;;11.63;2.85;;;13.20;99.90;;;;;;5070317;28;20123;-64
2023/01/02 11:47:52;;;;;;;10.48;2.72;;;13.40;99.90;;;;;;5068131;28;20174;-63
2023/01/02 11:50:23;;;;;;;9.98;2.78;;;13.60;99.90;;;;;;5067783;28;20485;-64
2023/01/02 11:52:51;;;;;;;;;;;13.80;99.90;;;;;;5068925;28;20036;-64
2023/01/02 11:55:54;;;;;;;9.57;2.50;;;14.00;99.90;;;;;;5070004;28;19913;-63
2023/01/02 11:58:32;;;;;;;13.07;2.55;;;14.00;99.90;;;;;;5065215;28;20037;-64
2023/01/02 12:01:17;;;;;;;11.82;2.83;;;14.20;99.90;;;;;;5068522;28;20113;-64
2023/01/02 12:03:43;;;;;;;9.50;2.30;;;14.30;99.90;;;;;;5066710;28;20496;-63
2023/01/02 12:06:19;;;;;;;8.00;2.42;;;14.50;99.90;;;;;;5068387;28;20016;-63
2023/01/02 12:09:13;;;;;;;13.63;2.30;;;14.80;99.90;;;;;;5061709;28;20052;-63
2023/01/02 12:11:50;;;;;;;10.38;2.40;;;15.10;99.90;;;;;;5073518;28;20044;-64
2023/01/02 12:14:44;;;;;;;10.23;2.10;;;15.30;99.90;;;;;;5069795;28;20037;-65
2023/01/02 12:17:31;;;;;;;7.63;2.20;;;15.30;99.90;;;;;;5063596;28;20085;-64
2023/01/02 12:20:05;;;;;;;4.85;2.08;;;15.10;99.90;;;;;;5062007;28;20032;-63
2023/01/02 12:22:55;;;;;;;7.53;2.17;;;15.10;99.90;;;;;;5071438;28;20049;-65
2023/01/02 12:25:48;;;;;;;10.68;2.47;;;15.20;99.90;;;;;;5068637;28;20084;-65
2023/01/02 12:28:17;;;;;;;8.20;2.03;;;15.50;99.90;;;;;;5067139;28;20048;-63
2023/01/02 12:31:01;;;;;;;13.00;2.22;;;15.30;99.90;;;;;;5070965;28;20412;-65
2023/01/02 12:33:53;;;;;;;5.68;2.10;;;15.10;99.90;;;;;;5064263;28;20492;-65
2023/01/02 12:36:49;;;;;;;11.70;2.45;;;14.90;99.90;;;;;;5060281;28;20055;-64
2023/01/02 12:39:41;;;;;;;8.43;2.60;;;14.80;99.90;;;;;;5062651;28;20040;-63
2023/01/02 12:42:21;;;;;;;9.75;2.03;;;14.70;99.90;;;;;;5060853;28;20091;-63
2023/01/02 12:44:53;;;;;;;10.30;2.05;;;14.60;99.90;;;;;;5069516;28;20036;-63
2023/01/02 12:47:43;;;;;;;8.40;2.90;;;14.60;99.90;;;;;;5065046;28;20044;-64
2023/01/02 12:50:24;;;;;;;6.78;2.25;;;14.50;99.90;;;;;;5061270;28;20048;-65
2023/01/02 12:53:02;;;;;;;5.90;2.35;;;14.50;99.90;;;;;;5067509;28;20036;-67
2023/01/02 12:55:44;;;;;;;7.00;2.40;;;14.50;99.90;;;;;;5069403;28;20024;-64
2023/01/02 12:58:15;;;;;;;8.55;2.50;;;14.40;99.90;;;;;;5061777;28;20785;-65
2023/01/02 13:01:02;;;;;;;9.48;2.55;;;14.50;99.90;;;;;;5069957;28;20103;-66
2023/01/02 13:03:55;;;;;;;9.80;2.50;;;14.50;99.90;;;;;;5065955;28;20159;-63
2023/01/02 13:06:38;;;;;;;11.30;3.22;;;14.50;99.90;;;;;;5067902;28;20031;-65
2023/01/02 13:09:32;;;;;;;11.82;2.40;;;14.50;99.90;;;;;;5059319;28;20032;-63
2023/01/02 13:12:20;;;;;;;7.22;2.50;;;14.40;99.90;;;;;;5066325;28;20036;-62
2023/01/02 13:14:57;;;;;;;8.38;2.55;;;14.50;99.90;;;;;;5067935;28;20050;-64
2023/01/02 13:17:26;;;;;;;14.15;3.75;;;14.40;99.90;;;;;;5067531;28;20119;-63